Time;durP1;ratioP1;P1;durP2;ratioP2;P2;SDS_P1;SDS_P2;PMS_P1;PMS_P2;Temp;Humidity;BMP_temperature;BMP_pressure;BME280_temperature;BME280_humidity;BME280_pressure;Samples;Min_cycle;Max_cycle;Signal;HPM_P1;HPM_P2
2022/09/25 00:01:39;;;;;;;5.22;1.55;;;;;;;;;;5000325;28;20437;-88
2022/09/25 00:04:05;;;;;;;7.97;2.00;;;;;;;;;;5018903;28;20100;-87
2022/09/25 00:06:34;;;;;;;9.85;2.03;;;;;;;;;;5001475;28;20049;-86
2022/09/25 00:09:01;;;;;;;9.60;1.88;;;;;;;;;;4997637;28;20041;-87
2022/09/25 00:11:31;;;;;;;5.60;2.00;;;;;;;;;;4987595;28;20073;-86
2022/09/25 00:13:58;;;;;;;6.13;2.00;;;;;;;;;;4986002;28;20046;-87
2022/09/25 00:16:27;;;;;;;11.02;1.95;;;;;;;;;;5002778;28;20120;-87
2022/09/25 00:21:39;;;;;;;6.70;2.00;;;;;;;;;;4997244;28;20057;-65
2022/09/25 00:24:07;;;;;;;8.80;2.55;;;;;;;;;;5022649;28;20040;-64
2022/09/25 00:26:34;;;;;;;8.00;1.98;;;;;;;;;;5018464;28;20046;-64
2022/09/25 00:29:01;;;;;;;6.95;2.13;;;;;;;;;;5027861;28;20132;-65
2022/09/25 00:31:27;;;;;;;8.20;2.33;;;;;;;;;;5018687;28;20053;-65
2022/09/25 00:33:54;;;;;;;10.27;3.03;;;;;;;;;;5025223;28;20065;-64
2022/09/25 00:36:20;;;;;;;7.40;2.05;;;;;;;;;;5025246;28;20100;-64
2022/09/25 00:38:47;;;;;;;11.13;2.65;;;;;;;;;;5023023;28;20041;-65
2022/09/25 00:41:14;;;;;;;7.78;1.75;;;;;;;;;;5003677;28;20076;-64
2022/09/25 00:43:49;;;;;;;9.07;2.33;;;;;;;;;;5022581;28;20038;-64
2022/09/25 00:46:30;;;;;;;8.45;1.90;;;;;;;;;;5019713;28;20415;-64
2022/09/25 00:49:02;;;;;;;11.23;2.92;;;;;;;;;;5025438;28;20061;-64
2022/09/25 00:51:40;;;;;;;11.00;1.88;;;;;;;;;;5022555;28;20049;-64
2022/09/25 00:54:08;;;;;;;9.38;2.00;;;;;;;;;;5002498;28;20089;-64
2022/09/25 00:56:37;;;;;;;11.43;3.53;;;;;;;;;;5015133;28;20147;-64
2022/09/25 00:59:04;;;;;;;8.48;2.28;;;;;;;;;;5014354;28;20042;-64
2022/09/25 01:01:30;;;;;;;7.43;2.47;;;;;;;;;;5020143;28;20030;-64
2022/09/25 01:03:56;;;;;;;8.93;2.03;;;;;;;;;;5022933;28;20050;-64
2022/09/25 01:06:24;;;;;;;8.82;2.53;;;;;;;;;;5026552;28;20037;-64
2022/09/25 01:08:50;;;;;;;11.25;2.55;;;;;;;;;;5027743;28;20041;-64
2022/09/25 01:11:16;;;;;;;8.30;1.80;;;;;;;;;;5024604;28;20034;-64
2022/09/25 01:13:42;;;;;;;10.82;2.03;;;;;;;;;;5025625;28;20062;-64
2022/09/25 01:16:19;;;;;;;6.90;2.10;;;;;;;;;;5021464;28;20232;-64
2022/09/25 01:18:48;;;;;;;9.10;1.90;;;;;;;;;;5003929;28;20050;-65
2022/09/25 01:21:14;;;;;;;7.32;1.90;;;;;;;;;;5020568;28;20628;-64
2022/09/25 01:23:59;;;;;;;9.80;2.05;;;;;;;;;;5016373;28;20439;-64
2022/09/25 01:26:25;;;;;;;;;;;;;;;;;;5016645;28;20114;-65
2022/09/25 01:29:03;;;;;;;10.48;1.90;;;;;;;;;;5015635;28;20019;-64
2022/09/25 01:31:39;;;;;;;7.18;2.08;;;;;;;;;;5010847;28;20056;-65
2022/09/25 01:34:14;;;;;;;6.25;1.75;;;;;;;;;;4995742;28;20124;-65
2022/09/25 01:36:48;;;;;;;8.48;2.15;;;;;;;;;;5012563;28;20034;-65
2022/09/25 01:39:28;;;;;;;8.33;1.87;;;;;;;;;;5012612;28;20049;-64
2022/09/25 01:41:57;;;;;;;7.85;2.15;;;;;;;;;;5012709;28;20045;-64
2022/09/25 01:44:28;;;;;;;8.45;2.35;;;;;;;;;;5012308;23;20042;-91
2022/09/25 01:46:56;;;;;;;6.47;1.90;;;;;;;;;;5007277;28;20037;-90
2022/09/25 01:49:25;;;;;;;11.07;2.10;;;;;;;;;;4993113;28;20068;-90
2022/09/25 01:51:53;;;;;;;7.82;2.08;;;;;;;;;;5012524;28;20487;-90
2022/09/25 01:54:21;;;;;;;5.43;1.88;;;;;;;;;;4992949;28;20510;-90
2022/09/25 01:56:51;;;;;;;8.77;2.42;;;;;;;;;;4999837;28;20555;-89
2022/09/25 01:59:22;;;;;;;7.43;1.90;;;;;;;;;;5014627;28;20049;-89
2022/09/25 02:01:50;;;;;;;7.95;1.90;;;;;;;;;;5014920;28;20070;-89
2022/09/25 02:04:20;;;;;;;7.47;1.75;;;;;;;;;;5013322;28;20106;-89
2022/09/25 02:06:48;;;;;;;7.85;1.77;;;;;;;;;;5012462;28;20087;-89
2022/09/25 02:09:25;;;;;;;8.02;1.70;;;;;;;;;;5012264;28;20756;-89
2022/09/25 02:11:53;;;;;;;9.07;1.88;;;;;;;;;;4995810;28;20034;-89
2022/09/25 02:14:22;;;;;;;6.03;1.70;;;;;;;;;;5011079;28;20083;-89
2022/09/25 02:16:50;;;;;;;10.77;1.90;;;;;;;;;;5008625;28;20175;-88
2022/09/25 02:22:07;;;;;;;6.18;1.65;;;;;;;;;;5024371;28;20033;-88
2022/09/25 02:24:39;;;;;;;11.27;2.33;;;;;;;;;;5009738;28;20124;-89
2022/09/25 02:27:05;;;;;;;7.55;2.38;;;;;;;;;;5023012;28;20048;-89
2022/09/25 02:29:31;;;;;;;8.00;2.00;;;;;;;;;;5007821;28;20041;-88
2022/09/25 02:31:59;;;;;;;9.07;2.20;;;;;;;;;;4995534;28;21739;-88
2022/09/25 02:34:25;;;;;;;6.43;1.83;;;;;;;;;;4995287;28;20037;-88
2022/09/25 02:36:51;;;;;;;8.73;2.10;;;;;;;;;;5010813;28;20081;-88
2022/09/25 02:39:18;;;;;;;6.57;1.85;;;;;;;;;;4995905;28;20495;-89
2022/09/25 02:42:09;;;;;;;7.78;1.65;;;;;;;;;;5011780;28;20120;-88
2022/09/25 02:44:38;;;;;;;9.55;2.13;;;;;;;;;;5012070;28;20136;-88
2022/09/25 02:47:23;;;;;;;8.27;1.90;;;;;;;;;;5030773;28;20071;-88
2022/09/25 02:49:49;;;;;;;;;;;;;;;;;;5037150;28;20042;-88
2022/09/25 02:52:22;;;;;;;7.80;1.90;;;;;;;;;;4991314;28;19924;-89
2022/09/25 02:54:55;;;;;;;10.48;2.15;;;;;;;;;;4997554;28;20116;-89
2022/09/25 02:57:21;;;;;;;6.70;2.22;;;;;;;;;;4999364;28;20135;-89
2022/09/25 02:59:52;;;;;;;7.88;1.92;;;;;;;;;;5000009;28;20041;-90
2022/09/25 03:02:20;;;;;;;7.63;2.38;;;;;;;;;;5037916;28;20041;-95
2022/09/25 03:04:48;;;;;;;6.68;1.60;;;;;;;;;;5040074;23;20076;-64
2022/09/25 03:07:16;;;;;;;9.20;2.08;;;;;;;;;;5031254;28;20077;-65
2022/09/25 03:09:45;;;;;;;4.57;1.10;;;;;;;;;;5030985;28;20037;-64
2022/09/25 03:12:11;;;;;;;5.28;1.30;;;;;;;;;;5020744;28;20491;-64
2022/09/25 03:14:37;;;;;;;4.50;1.20;;;;;;;;;;5025134;28;20065;-64
2022/09/25 03:17:04;;;;;;;6.43;1.48;;;;;;;;;;5023236;28;20042;-64
2022/09/25 03:19:31;;;;;;;5.78;1.35;;;;;;;;;;5031156;28;20033;-64
2022/09/25 03:21:57;;;;;;;4.22;1.20;;;;;;;;;;5030679;28;20033;-64
2022/09/25 03:24:24;;;;;;;4.68;1.40;;;;;;;;;;5031730;28;20124;-63
2022/09/25 03:26:50;;;;;;;4.85;1.38;;;;;;;;;;5024457;28;20038;-64
2022/09/25 03:29:16;;;;;;;4.85;1.20;;;;;;;;;;5030422;28;20041;-63
2022/09/25 03:31:44;;;;;;;4.53;1.10;;;;;;;;;;5030052;28;20037;-63
2022/09/25 03:34:11;;;;;;;3.60;1.10;;;;;;;;;;5031319;28;20033;-63
2022/09/25 03:36:38;;;;;;;6.18;1.52;;;;;;;;;;5030448;28;20576;-63
2022/09/25 03:39:05;;;;;;;5.25;1.70;;;;;;;;;;5030921;28;20050;-63
2022/09/25 03:41:32;;;;;;;7.47;1.45;;;;;;;;;;5031001;28;20033;-63
2022/09/25 03:43:58;;;;;;;4.60;1.17;;;;;;;;;;5018994;28;20120;-63
2022/09/25 03:46:32;;;;;;;8.45;1.52;;;;;;;;;;5027004;28;20037;-63
2022/09/25 03:48:58;;;;;;;6.77;1.40;;;;;;;;;;5027698;28;20038;-63
2022/09/25 03:51:25;;;;;;;6.88;1.50;;;;;;;;;;5021364;28;20045;-63
2022/09/25 03:53:52;;;;;;;7.43;1.52;;;;;;;;;;5010143;28;20030;-63
2022/09/25 03:56:19;;;;;;;5.22;1.73;;;;;;;;;;5029478;28;20056;-63
2022/09/25 03:58:45;;;;;;;6.82;1.65;;;;;;;;;;5008364;28;20130;-63
2022/09/25 04:01:11;;;;;;;8.80;1.70;;;;;;;;;;5005323;28;20065;-62
2022/09/25 04:03:38;;;;;;;5.40;1.38;;;;;;;;;;5022251;28;20056;-63
2022/09/25 04:06:05;;;;;;;6.13;1.90;;;;;;;;;;5031492;28;20123;-63
2022/09/25 04:08:31;;;;;;;5.28;1.40;;;;;;;;;;5021128;28;20037;-62
2022/09/25 04:10:58;;;;;;;4.15;1.25;;;;;;;;;;5007626;28;20500;-63
2022/09/25 04:13:39;;;;;;;5.60;1.75;;;;;;;;;;5017808;28;20038;-62
2022/09/25 04:16:06;;;;;;;6.78;1.60;;;;;;;;;;5021203;28;20048;-62
2022/09/25 04:18:32;;;;;;;7.40;1.98;;;;;;;;;;5022374;28;20393;-62
2022/09/25 04:20:59;;;;;;;4.90;1.52;;;;;;;;;;5028356;28;20037;-62
2022/09/25 04:23:25;;;;;;;4.85;1.38;;;;;;;;;;5021553;28;20042;-62
2022/09/25 04:25:52;;;;;;;7.72;1.65;;;;;;;;;;5027810;28;20037;-62
2022/09/25 04:28:18;;;;;;;7.57;1.83;;;;;;;;;;5025373;28;20049;-62
2022/09/25 04:30:44;;;;;;;6.25;1.40;;;;;;;;;;5021971;28;20056;-63
2022/09/25 04:33:52;;;;;;;5.20;1.50;;;;;;;;;;5026964;28;20041;-62
2022/09/25 04:35:59;;;;;;;6.35;1.40;;;;;;;;;;5019950;28;20042;-62
2022/09/25 04:38:26;;;;;;;7.28;1.73;;;;;;;;;;5017582;28;20037;-61
2022/09/25 04:40:52;;;;;;;6.35;1.95;;;;;;;;;;5027267;28;20042;-62
2022/09/25 04:43:18;;;;;;;7.53;2.28;;;;;;;;;;5013669;28;20203;-62
2022/09/25 04:45:46;;;;;;;6.10;1.63;;;;;;;;;;5025917;28;20044;-62
2022/09/25 04:48:12;;;;;;;7.32;1.65;;;;;;;;;;5027856;28;20041;-62
2022/09/25 04:50:38;;;;;;;6.60;1.73;;;;;;;;;;5022197;28;20441;-62
2022/09/25 04:53:04;;;;;;;5.65;1.63;;;;;;;;;;5018637;28;20042;-62
2022/09/25 04:55:30;;;;;;;5.82;1.40;;;;;;;;;;5025573;28;20038;-61
2022/09/25 04:57:57;;;;;;;5.90;1.60;;;;;;;;;;5027024;28;20037;-61
2022/09/25 05:00:25;;;;;;;9.05;1.63;;;;;;;;;;5027448;28;20762;-61
2022/09/25 05:02:51;;;;;;;5.35;1.58;;;;;;;;;;5026886;28;20383;-62
2022/09/25 05:05:18;;;;;;;5.85;1.58;;;;;;;;;;5029940;28;20041;-62
2022/09/25 05:07:57;;;;;;;6.68;1.80;;;;;;;;;;5023217;28;20041;-62
2022/09/25 05:10:26;;;;;;;8.45;2.10;;;;;;;;;;5019644;28;20038;-62
2022/09/25 05:12:59;;;;;;;7.72;2.03;;;;;;;;;;4998651;28;20049;-61
2022/09/25 05:15:26;;;;;;;4.60;1.50;;;;;;;;;;5029364;28;20380;-62
2022/09/25 05:17:59;;;;;;;6.30;1.80;;;;;;;;;;5022865;28;20042;-61
2022/09/25 05:20:25;;;;;;;6.75;2.20;;;;;;;;;;5025500;28;20072;-61
2022/09/25 05:22:54;;;;;;;6.75;1.88;;;;;;;;;;5020002;28;20061;-61
2022/09/25 05:25:22;;;;;;;4.88;1.42;;;;;;;;;;5016497;28;20052;-62
2022/09/25 05:27:49;;;;;;;5.05;1.35;;;;;;;;;;4993298;28;21470;-61
2022/09/25 05:30:16;;;;;;;7.13;1.65;;;;;;;;;;5019856;28;20041;-62
2022/09/25 05:32:52;;;;;;;5.88;1.75;;;;;;;;;;4996409;28;20084;-62
2022/09/25 05:35:19;;;;;;;6.47;1.77;;;;;;;;;;5001666;28;20129;-62
2022/09/25 05:37:45;;;;;;;8.32;2.00;;;;;;;;;;5013132;28;20056;-62
2022/09/25 05:40:11;;;;;;;5.93;1.95;;;;;;;;;;5017323;28;20033;-62
2022/09/25 05:42:37;;;;;;;7.32;1.90;;;;;;;;;;5012958;28;20492;-62
2022/09/25 05:45:03;;;;;;;6.47;2.08;;;;;;;;;;5014389;28;20450;-62
2022/09/25 05:47:29;;;;;;;6.25;1.88;;;;;;;;;;5020736;28;20125;-62
2022/09/25 05:49:55;;;;;;;7.18;1.80;;;;;;;;;;5012232;28;20120;-62
2022/09/25 05:52:21;;;;;;;7.90;2.53;;;;;;;;;;5019977;28;20087;-62
2022/09/25 05:54:47;;;;;;;7.22;2.00;;;;;;;;;;5012226;28;20499;-62
2022/09/25 05:57:13;;;;;;;7.05;2.13;;;;;;;;;;5019895;28;20500;-62
2022/09/25 05:59:39;;;;;;;7.13;2.08;;;;;;;;;;5015399;28;20037;-62
2022/09/25 06:02:05;;;;;;;10.57;2.00;;;;;;;;;;5012237;28;20176;-62
2022/09/25 06:04:31;;;;;;;8.27;2.17;;;;;;;;;;5013210;28;20049;-62
2022/09/25 06:07:01;;;;;;;7.43;2.55;;;;;;;;;;5010166;28;20487;-63
2022/09/25 06:09:27;;;;;;;9.00;2.50;;;;;;;;;;5024436;28;20072;-62
2022/09/25 06:11:53;;;;;;;7.65;2.75;;;;;;;;;;5021674;28;20048;-62
2022/09/25 06:14:19;;;;;;;11.20;2.70;;;;;;;;;;5025064;28;20115;-62
2022/09/25 06:16:49;;;;;;;6.63;2.60;;;;;;;;;;5003724;28;20511;-62
2022/09/25 06:19:16;;;;;;;6.95;2.50;;;;;;;;;;5085920;22;20119;-64
2022/09/25 06:21:42;;;;;;;8.77;2.70;;;;;;;;;;5008228;28;20100;-65
2022/09/25 06:24:09;;;;;;;8.90;2.83;;;;;;;;;;5012107;28;20492;-64
2022/09/25 06:26:37;;;;;;;9.52;2.90;;;;;;;;;;5004643;28;20458;-64
2022/09/25 06:29:03;;;;;;;9.23;2.67;;;;;;;;;;4998764;28;20121;-64
2022/09/25 06:31:29;;;;;;;11.50;2.95;;;;;;;;;;4997816;28;20069;-64
2022/09/25 06:33:55;;;;;;;7.13;2.70;;;;;;;;;;4997394;28;20038;-65
2022/09/25 06:36:21;;;;;;;9.18;2.72;;;;;;;;;;5005946;28;20042;-64
2022/09/25 06:38:48;;;;;;;9.80;2.95;;;;;;;;;;5007851;28;20041;-65
2022/09/25 06:41:14;;;;;;;8.52;3.00;;;;;;;;;;5013260;28;20104;-64
2022/09/25 06:43:40;;;;;;;8.02;3.55;;;;;;;;;;5003054;28;20121;-65
2022/09/25 06:46:06;;;;;;;8.07;3.33;;;;;;;;;;4986300;28;20389;-64
2022/09/25 06:48:32;;;;;;;10.70;3.10;;;;;;;;;;4999662;28;20087;-64
2022/09/25 06:50:59;;;;;;;9.35;3.58;;;;;;;;;;4981553;28;20038;-65
2022/09/25 06:53:26;;;;;;;6.72;3.40;;;;;;;;;;4999067;28;20563;-65
2022/09/25 06:55:54;;;;;;;10.27;3.88;;;;;;;;;;5011079;28;20037;-64
2022/09/25 06:58:21;;;;;;;10.73;4.13;;;;;;;;;;4999624;28;20050;-65
2022/09/25 07:00:48;;;;;;;11.45;4.15;;;;;;;;;;4996315;28;20037;-65
2022/09/25 07:05:59;;;;;;;8.60;4.28;;;;;;;;;;4992450;28;20046;-65
2022/09/25 07:08:25;;;;;;;12.25;4.70;;;;;;;;;;4993191;28;20053;-64
2022/09/25 07:10:52;;;;;;;10.65;4.22;;;;;;;;;;4992879;28;20405;-65
2022/09/25 07:13:23;;;;;;;11.57;4.65;;;;;;;;;;5003451;28;20037;-64
2022/09/25 07:15:52;;;;;;;10.93;4.53;;;;;;;;;;5005560;28;20054;-64
2022/09/25 07:18:18;;;;;;;10.23;4.55;;;;;;;;;;5001462;28;20074;-64
2022/09/25 07:20:45;;;;;;;10.93;3.90;;;;;;;;;;4980457;28;20034;-64
2022/09/25 07:23:12;;;;;;;9.10;4.03;;;;;;;;;;4987805;28;20493;-65
2022/09/25 07:25:38;;;;;;;8.38;4.07;;;;;;;;;;5004318;28;20434;-64
2022/09/25 07:28:06;;;;;;;7.78;3.90;;;;;;;;;;4988837;28;20556;-65
2022/09/25 07:30:32;;;;;;;10.20;3.97;;;;;;;;;;4996350;28;20042;-65
2022/09/25 07:32:58;;;;;;;12.00;3.70;;;;;;;;;;5005092;28;20493;-65
2022/09/25 07:35:26;;;;;;;8.55;3.20;;;;;;;;;;4997656;28;20042;-65
2022/09/25 07:37:52;;;;;;;8.65;3.47;;;;;;;;;;4991784;28;20042;-65
2022/09/25 07:40:18;;;;;;;8.85;3.70;;;;;;;;;;4975120;28;20126;-65
2022/09/25 07:42:44;;;;;;;10.48;3.58;;;;;;;;;;4989981;28;20117;-64
2022/09/25 07:45:10;;;;;;;10.68;3.45;;;;;;;;;;4988876;28;20410;-64
2022/09/25 07:47:36;;;;;;;8.25;2.80;;;;;;;;;;4992720;28;20085;-64
2022/09/25 07:50:02;;;;;;;9.63;2.97;;;;;;;;;;4993383;28;20042;-64
2022/09/25 07:52:28;;;;;;;8.07;2.80;;;;;;;;;;4993637;28;20042;-64
2022/09/25 07:54:54;;;;;;;8.73;3.00;;;;;;;;;;4975435;28;20439;-64
2022/09/25 07:57:21;;;;;;;10.68;4.40;;;;;;;;;;4991234;28;20042;-64
2022/09/25 07:59:47;;;;;;;6.63;2.13;;;;;;;;;;4956618;28;20108;-64
2022/09/25 08:02:13;;;;;;;9.00;2.30;;;;;;;;;;4986645;28;20546;-64
2022/09/25 08:04:39;;;;;;;11.02;2.53;;;;;;;;;;4981525;28;20118;-64
2022/09/25 08:07:05;;;;;;;6.57;2.13;;;;;;;;;;4982354;28;20038;-65
2022/09/25 08:09:31;;;;;;;5.57;1.42;;;;;;;;;;4971256;28;20121;-64
2022/09/25 08:11:57;;;;;;;13.32;2.15;;;;;;;;;;4986063;28;20320;-65
2022/09/25 08:14:24;;;;;;;5.60;1.55;;;;;;;;;;4981663;28;20496;-65
2022/09/25 08:16:53;;;;;;;7.50;1.98;;;;;;;;;;4987872;28;20113;-64
2022/09/25 08:19:22;;;;;;;5.03;1.50;;;;;;;;;;4986623;28;20393;-64
2022/09/25 08:21:48;;;;;;;5.07;1.13;;;;;;;;;;4969290;28;21514;-64
2022/09/25 08:24:14;;;;;;;6.65;1.25;;;;;;;;;;4971213;28;20499;-64
2022/09/25 08:26:40;;;;;;;5.22;1.15;;;;;;;;;;4985949;28;20121;-64
2022/09/25 08:29:10;;;;;;;7.43;1.85;;;;;;;;;;4957601;28;20053;-64
2022/09/25 08:31:36;;;;;;;5.18;1.10;;;;;;;;;;4987141;28;20067;-64
2022/09/25 08:34:02;;;;;;;6.57;1.52;;;;;;;;;;4989134;28;20043;-64
2022/09/25 08:36:28;;;;;;;5.25;1.48;;;;;;;;;;4990845;28;20051;-64
2022/09/25 08:38:56;;;;;;;5.22;1.83;;;;;;;;;;4986963;28;20462;-63
2022/09/25 08:41:34;;;;;;;6.40;1.40;;;;;;;;;;4970542;28;20091;-63
2022/09/25 08:44:05;;;;;;;6.75;1.70;;;;;;;;;;4985502;28;20050;-64
2022/09/25 08:49:19;;;;;;;4.07;1.27;;;;;;;;;;4968262;28;20575;-64
2022/09/25 08:51:49;;;;;;;5.38;1.38;;;;;;;;;;4985866;28;20039;-63
2022/09/25 08:54:24;;;;;;;7.13;1.38;;;;;;;;;;4990243;28;20466;-64
2022/09/25 08:56:52;;;;;;;5.03;1.27;;;;;;;;;;4973415;28;20404;-64
2022/09/25 08:59:21;;;;;;;3.97;1.23;;;;;;;;;;4985349;28;20047;-64
2022/09/25 09:01:52;;;;;;;4.78;1.40;;;;;;;;;;4995400;28;20046;-64
2022/09/25 09:04:44;;;;;;;7.53;1.90;;;;;;;;;;4989970;28;20056;-64
2022/09/25 09:07:15;;;;;;;4.75;1.30;;;;;;;;;;4953705;28;20485;-61
2022/09/25 09:09:45;;;;;;;5.32;1.73;;;;;;;;;;4932013;28;20037;-64
2022/09/25 09:12:18;;;;;;;4.35;1.20;;;;;;;;;;4992140;28;20034;-64
2022/09/25 09:14:45;;;;;;;5.05;1.73;;;;;;;;;;4972332;28;20507;-64
2022/09/25 09:17:17;;;;;;;5.95;1.30;;;;;;;;;;4969087;28;20059;-64
2022/09/25 09:19:45;;;;;;;5.10;1.58;;;;;;;;;;4996779;28;20038;-64
2022/09/25 09:22:12;;;;;;;4.93;1.13;;;;;;;;;;4995086;28;20035;-64
2022/09/25 09:25:05;;;;;;;5.07;1.20;;;;;;;;;;4974827;28;20042;-64
2022/09/25 09:27:47;;;;;;;4.88;1.10;;;;;;;;;;4959200;28;20056;-64
2022/09/25 09:30:18;;;;;;;4.82;1.40;;;;;;;;;;4998030;28;20568;-64
2022/09/25 09:32:47;;;;;;;6.65;1.10;;;;;;;;;;4977132;28;20136;-64
2022/09/25 09:35:16;;;;;;;6.10;1.48;;;;;;;;;;4995331;28;20061;-65
2022/09/25 09:40:20;;;;;;;4.85;1.63;;;;;;;;;;4905582;28;20215;-66
2022/09/25 09:42:56;;;;;;;3.88;1.02;;;;;;;;;;4912299;28;20483;-62
2022/09/25 09:45:28;;;;;;;5.65;1.33;;;;;;;;;;4972849;28;21078;-65
2022/09/25 09:47:54;;;;;;;6.07;1.58;;;;;;;;;;4974173;28;20042;-65
2022/09/25 09:50:40;;;;;;;2.58;0.90;;;;;;;;;;4974147;28;20049;-65
2022/09/25 09:53:11;;;;;;;4.20;1.13;;;;;;;;;;4990743;28;20069;-65
2022/09/25 09:55:49;;;;;;;5.80;1.30;;;;;;;;;;4988211;28;20089;-65
2022/09/25 10:00:48;;;;;;;5.93;1.13;;;;;;;;;;4894905;28;20055;-64
2022/09/25 10:03:18;;;;;;;4.43;1.15;;;;;;;;;;4893695;28;20437;-64
2022/09/25 10:05:49;;;;;;;6.32;1.33;;;;;;;;;;4876822;28;20486;-64
2022/09/25 10:08:16;;;;;;;5.30;0.98;;;;;;;;;;4870651;28;20363;-63
2022/09/25 10:10:52;;;;;;;6.28;1.10;;;;;;;;;;4952644;28;20039;-65
2022/09/25 10:13:23;;;;;;;5.80;1.17;;;;;;;;;;4963837;28;20101;-65
2022/09/25 10:15:59;;;;;;;4.30;0.98;;;;;;;;;;4945243;28;20404;-64
2022/09/25 10:18:28;;;;;;;5.28;1.10;;;;;;;;;;4950211;28;20113;-64
2022/09/25 10:21:03;;;;;;;5.70;1.27;;;;;;;;;;4951199;28;20039;-64
2022/09/25 10:23:49;;;;;;;5.30;1.48;;;;;;;;;;4960624;28;20375;-64
2022/09/25 10:26:25;;;;;;;6.68;1.70;;;;;;;;;;4958515;28;20038;-64
2022/09/25 10:28:52;;;;;;;6.50;1.30;;;;;;;;;;4954623;28;20053;-64
2022/09/25 10:31:19;;;;;;;5.40;0.90;;;;;;;;;;4967179;28;20057;-64
2022/09/25 10:34:21;;;;;;;3.47;0.90;;;;;;;;;;4966559;28;20062;-64
2022/09/25 10:36:50;;;;;;;4.28;0.95;;;;;;;;;;4905444;29;20410;-65
2022/09/25 10:39:27;;;;;;;3.60;0.90;;;;;;;;;;4931413;28;20050;-65
2022/09/25 10:41:53;;;;;;;3.33;0.93;;;;;;;;;;4965399;28;20365;-64
2022/09/25 10:44:21;;;;;;;2.97;1.00;;;;;;;;;;4968501;28;20412;-65
2022/09/25 10:52:28;;;;;;;6.72;1.00;;;;;;;;;;4965750;28;20051;-64
2022/09/25 10:55:15;;;;;;;3.80;0.98;;;;;;;;;;4966978;28;20031;-64
2022/09/25 10:57:41;;;;;;;4.35;1.10;;;;;;;;;;4954688;28;20053;-64
2022/09/25 11:00:19;;;;;;;4.45;0.88;;;;;;;;;;4964067;28;20041;-65
2022/09/25 11:02:46;;;;;;;3.20;0.95;;;;;;;;;;4959974;28;20061;-64
2022/09/25 11:05:17;;;;;;;4.50;1.10;;;;;;;;;;4967050;28;20039;-65
2022/09/25 11:07:54;;;;;;;4.18;1.05;;;;;;;;;;4966902;28;20048;-65
2022/09/25 11:10:25;;;;;;;3.70;1.00;;;;;;;;;;4966779;28;20038;-65
2022/09/25 11:12:51;;;;;;;4.35;1.10;;;;;;;;;;4963022;28;20513;-65
2022/09/25 11:15:22;;;;;;;5.07;1.40;;;;;;;;;;4965998;28;20034;-64
2022/09/25 11:17:52;;;;;;;5.53;1.38;;;;;;;;;;4965327;28;21230;-64
2022/09/25 11:20:19;;;;;;;5.88;1.38;;;;;;;;;;4970536;28;20038;-65
2022/09/25 11:22:52;;;;;;;6.57;1.15;;;;;;;;;;4958454;28;20053;-64
2022/09/25 11:25:24;;;;;;;5.93;1.52;;;;;;;;;;4962531;28;20050;-64
2022/09/25 11:28:03;;;;;;;5.72;1.35;;;;;;;;;;4952865;28;20181;-64
2022/09/25 11:30:31;;;;;;;5.25;1.30;;;;;;;;;;4961635;28;20051;-64
2022/09/25 11:33:00;;;;;;;6.93;2.05;;;;;;;;;;4961645;28;20043;-64
2022/09/25 11:35:41;;;;;;;4.50;1.25;;;;;;;;;;4960341;28;20035;-65
2022/09/25 11:38:10;;;;;;;6.60;1.10;;;;;;;;;;4943031;28;20058;-64
2022/09/25 11:43:46;;;;;;;3.38;0.88;;;;;;;;;;4974090;28;20046;-65
2022/09/25 11:46:25;;;;;;;4.22;0.95;;;;;;;;;;4952691;29;20051;-64
2022/09/25 11:48:59;;;;;;;5.68;1.00;;;;;;;;;;4967721;28;20126;-64
2022/09/25 11:51:34;;;;;;;6.65;1.58;;;;;;;;;;4969344;28;20563;-65
2022/09/25 11:54:20;;;;;;;5.10;1.10;;;;;;;;;;4944090;28;20051;-64
2022/09/25 11:56:56;;;;;;;6.00;1.33;;;;;;;;;;4970948;28;20417;-64
2022/09/25 11:59:41;;;;;;;3.83;1.02;;;;;;;;;;4962894;28;20047;-64
2022/09/25 12:02:36;;;;;;;6.32;1.52;;;;;;;;;;4971361;28;20174;-64
2022/09/25 12:05:20;;;;;;;5.32;1.05;;;;;;;;;;4979668;28;20066;-65
2022/09/25 12:08:04;;;;;;;4.53;1.10;;;;;;;;;;4959526;28;20456;-64
2022/09/25 12:10:42;;;;;;;4.22;0.93;;;;;;;;;;4964294;28;20050;-64
2022/09/25 12:13:16;;;;;;;5.68;1.23;;;;;;;;;;4960221;28;20269;-64
2022/09/25 12:15:54;;;;;;;3.58;1.08;;;;;;;;;;4962713;28;20071;-65
2022/09/25 12:18:20;;;;;;;4.40;1.13;;;;;;;;;;5045661;22;20252;-84
2022/09/25 12:20:58;;;;;;;4.80;1.00;;;;;;;;;;5012405;28;20385;-84
2022/09/25 12:23:24;;;;;;;4.43;0.90;;;;;;;;;;5011155;28;20038;-84
2022/09/25 12:25:56;;;;;;;5.40;0.90;;;;;;;;;;4994578;28;20496;-84
2022/09/25 12:28:51;;;;;;;3.20;0.90;;;;;;;;;;4990485;28;20529;-84
2022/09/25 12:31:21;;;;;;;4.25;1.10;;;;;;;;;;4962826;28;20456;-84
2022/09/25 12:34:05;;;;;;;5.30;1.10;;;;;;;;;;4953393;28;20043;-84
2022/09/25 12:36:35;;;;;;;;;;;;;;;;;;4969794;28;20049;-84
2022/09/25 12:39:07;;;;;;;5.53;1.00;;;;;;;;;;4976917;28;20280;-85
2022/09/25 12:41:39;;;;;;;5.88;1.00;;;;;;;;;;4974360;28;20042;-84
2022/09/25 12:44:11;;;;;;;2.83;0.85;;;;;;;;;;4957925;28;20038;-84
2022/09/25 12:46:48;;;;;;;5.40;1.13;;;;;;;;;;4973181;28;20125;-84
2022/09/25 12:49:31;;;;;;;4.47;1.10;;;;;;;;;;4957341;28;20548;-84
2022/09/25 12:52:01;;;;;;;4.10;1.00;;;;;;;;;;4974050;28;20034;-84
2022/09/25 12:54:41;;;;;;;5.47;0.90;;;;;;;;;;4974144;28;20042;-84
2022/09/25 12:57:10;;;;;;;4.57;1.27;;;;;;;;;;4969929;28;20047;-85
2022/09/25 12:59:39;;;;;;;2.42;0.90;;;;;;;;;;4955547;28;20038;-85
2022/09/25 13:02:20;;;;;;;5.60;1.08;;;;;;;;;;4981417;28;20038;-84
2022/09/25 13:05:05;;;;;;;5.40;1.33;;;;;;;;;;4998261;28;20084;-84
2022/09/25 13:07:42;;;;;;;5.90;1.10;;;;;;;;;;4979625;28;20109;-84
2022/09/25 13:10:29;;;;;;;6.68;1.17;;;;;;;;;;4996437;28;20121;-84
2022/09/25 13:12:56;;;;;;;4.32;1.08;;;;;;;;;;4970199;28;20125;-84
2022/09/25 13:15:26;;;;;;;4.22;0.93;;;;;;;;;;4967582;28;20499;-84
2022/09/25 13:17:52;;;;;;;4.82;1.10;;;;;;;;;;4984771;28;20046;-84
2022/09/25 13:20:27;;;;;;;6.50;1.00;;;;;;;;;;4973082;28;20049;-85
2022/09/25 13:23:04;;;;;;;6.45;1.50;;;;;;;;;;4976743;28;20081;-84
2022/09/25 13:25:39;;;;;;;3.80;1.00;;;;;;;;;;4994711;28;20038;-84
2022/09/25 13:28:07;;;;;;;3.47;0.88;;;;;;;;;;4973415;28;20031;-85
2022/09/25 13:30:33;;;;;;;3.90;0.93;;;;;;;;;;4982029;28;20034;-84
2022/09/25 13:33:01;;;;;;;5.07;0.98;;;;;;;;;;4944311;28;20062;-84
2022/09/25 13:35:28;;;;;;;2.53;0.90;;;;;;;;;;4974804;28;20046;-85
2022/09/25 13:37:56;;;;;;;4.45;0.98;;;;;;;;;;4977985;28;20038;-85
2022/09/25 13:40:42;;;;;;;5.28;0.98;;;;;;;;;;4967633;28;20128;-86
2022/09/25 13:43:28;;;;;;;4.13;0.90;;;;;;;;;;4964235;28;20045;-85
2022/09/25 13:46:16;;;;;;;3.75;0.90;;;;;;;;;;4959233;28;20045;-86
2022/09/25 13:48:43;;;;;;;9.60;1.98;;;;;;;;;;4962868;28;20088;-86
2022/09/25 13:51:18;;;;;;;2.47;0.80;;;;;;;;;;4959630;28;20039;-86
2022/09/25 13:53:57;;;;;;;2.78;1.00;;;;;;;;;;4958198;28;20093;-86
2022/09/25 13:56:33;;;;;;;3.53;1.33;;;;;;;;;;4963597;28;20047;-86
2022/09/25 13:59:06;;;;;;;2.80;0.90;;;;;;;;;;4957523;28;20511;-86
2022/09/25 14:01:36;;;;;;;2.38;0.80;;;38.60;99.90;;;;;;4958414;28;20449;-86
2022/09/25 14:04:30;;;;;;;3.92;0.88;;;38.60;99.90;;;;;;4977567;28;20038;-86
2022/09/25 14:07:12;;;;;;;2.75;0.77;;;38.40;99.90;;;;;;4943681;28;20054;-86
2022/09/25 14:09:43;;;;;;;4.15;0.93;;;38.30;99.90;;;;;;4967064;28;20057;-85
2022/09/25 14:12:41;;;;;;;3.72;0.90;;;36.20;99.90;;;;;;4969575;28;20034;-85
2022/09/25 14:15:21;;;;;;;2.55;0.80;;;33.80;99.90;;;;;;4965310;28;20496;-85
2022/09/25 14:17:51;;;;;;;4.30;0.80;;;33.20;99.90;;;;;;4961925;28;20042;-86
2022/09/25 14:20:26;;;;;;;3.10;0.90;;;32.80;99.90;;;;;;4975123;28;20038;-86
2022/09/25 14:23:00;;;;;;;3.17;0.90;;;32.60;99.90;;;;;;4985536;28;20038;-85
2022/09/25 14:26:16;;;;;;;3.33;0.88;;;30.40;99.90;;;;;;4955739;28;20181;-86
2022/09/25 14:28:44;;;;;;;4.30;0.95;;;28.00;99.90;;;;;;4976009;28;20061;-87
2022/09/25 14:31:31;;;;;;;2.58;0.80;;;27.00;99.90;;;;;;4974619;28;20113;-85
2022/09/25 14:34:27;;;;;;;4.68;0.90;;;26.00;99.90;;;;;;4954319;28;20249;-84
2022/09/25 14:37:41;;;;;;;3.58;1.10;;;24.10;99.90;;;;;;4955193;28;20042;-86
2022/09/25 14:40:21;;;;;;;3.22;0.90;;;23.30;99.90;;;;;;4961678;28;20042;-89
2022/09/25 14:43:06;;;;;;;3.13;0.93;;;23.00;99.90;;;;;;4980886;28;20094;-88
2022/09/25 14:45:38;;;;;;;3.55;0.80;;;21.30;99.90;;;;;;4978544;28;20408;-87
2022/09/25 14:48:10;;;;;;;5.60;1.33;;;20.90;99.90;;;;;;4958608;28;20388;-87
2022/09/25 14:51:08;;;;;;;2.63;0.90;;;21.30;99.90;;;;;;4946020;28;20833;-86
2022/09/25 14:53:41;;;;;;;5.75;1.05;;;20.00;99.90;;;;;;4940168;28;20049;-87
2022/09/25 14:56:11;;;;;;;3.28;0.82;;;20.20;99.90;;;;;;4988959;28;20457;-87
2022/09/25 14:58:44;;;;;;;3.20;0.90;;;20.30;99.90;;;;;;4994451;28;20104;-88
2022/09/25 15:01:31;;;;;;;3.65;0.90;;;19.20;99.90;;;;;;4960964;28;20372;-88
2022/09/25 15:04:27;;;;;;;6.50;0.90;;;19.80;99.90;;;;;;4943914;28;20408;-88
2022/09/25 15:07:08;;;;;;;3.90;1.00;;;18.80;99.90;;;;;;4966362;28;20551;-88
2022/09/25 15:09:37;;;;;;;4.35;1.30;;;17.90;99.90;;;;;;4964503;28;20046;-88
2022/09/25 15:12:30;;;;;;;2.60;0.90;;;18.10;99.90;;;;;;4963384;28;20407;-89
2022/09/25 15:15:11;;;;;;;3.78;0.90;;;17.70;99.90;;;;;;4957492;28;20042;-87
2022/09/25 15:17:50;;;;;;;3.33;0.70;;;17.50;99.90;;;;;;4933986;28;20405;-86
2022/09/25 15:20:20;;;;;;;5.45;1.00;;;17.70;99.90;;;;;;4930472;28;20138;-89